Time;durP1;ratioP1;P1;durP2;ratioP2;P2;SDS_P1;SDS_P2;PMS_P1;PMS_P2;Temp;Humidity;BMP_temperature;BMP_pressure;BME280_temperature;BME280_humidity;BME280_pressure;Samples;Min_cycle;Max_cycle;Signal;HPM_P1;HPM_P2
2021/01/17 00:02:04;;;;;;;13.38;6.30;;;0.60;99.90;;;;;;4838469;29;20114;-68
2021/01/17 00:04:30;;;;;;;18.73;7.40;;;0.60;99.90;;;;;;4838143;29;20061;-69
2021/01/17 00:06:57;;;;;;;18.40;7.88;;;0.60;99.90;;;;;;4841639;29;20510;-69
2021/01/17 00:09:23;;;;;;;18.27;7.93;;;0.60;99.90;;;;;;4829694;29;20058;-69
2021/01/17 00:11:50;;;;;;;17.88;8.50;;;0.60;99.90;;;;;;4851984;29;20086;-69
2021/01/17 00:14:16;;;;;;;20.80;9.52;;;0.60;99.90;;;;;;4856196;29;20053;-69
2021/01/17 00:16:42;;;;;;;18.48;7.55;;;0.60;99.90;;;;;;4833893;29;20453;-68
2021/01/17 00:19:09;;;;;;;19.52;8.32;;;0.60;99.90;;;;;;4840550;29;20053;-68
2021/01/17 00:21:41;;;;;;;17.00;7.68;;;0.60;99.90;;;;;;4839906;29;20050;-68
2021/01/17 00:24:09;;;;;;;16.88;7.97;;;0.60;99.90;;;;;;4835850;29;20064;-69
2021/01/17 00:26:37;;;;;;;22.65;9.70;;;0.60;99.90;;;;;;4832690;29;20057;-68
2021/01/17 00:29:03;;;;;;;19.70;8.57;;;0.60;99.90;;;;;;4838350;29;20049;-68
2021/01/17 00:31:36;;;;;;;24.02;9.10;;;0.60;99.90;;;;;;4850958;29;20073;-68
2021/01/17 00:34:05;;;;;;;21.05;8.07;;;0.60;99.90;;;;;;4842083;29;20543;-68
2021/01/17 00:36:41;;;;;;;25.77;10.82;;;0.60;99.90;;;;;;4850164;29;20062;-68
2021/01/17 00:39:08;;;;;;;19.25;8.93;;;0.60;99.90;;;;;;4841239;29;20057;-68
2021/01/17 00:41:35;;;;;;;15.90;8.15;;;0.60;99.90;;;;;;4829168;29;20140;-68
2021/01/17 00:44:03;;;;;;;17.65;8.57;;;0.60;99.90;;;;;;4836800;29;20133;-68
2021/01/17 00:46:40;;;;;;;17.97;7.83;;;0.60;99.90;;;;;;4832725;29;20423;-68
2021/01/17 00:49:07;;;;;;;16.52;8.30;;;0.60;99.90;;;;;;4837080;29;20058;-68
2021/01/17 00:51:45;;;;;;;18.20;8.27;;;0.70;99.90;;;;;;4841238;29;20082;-69
2021/01/17 00:54:12;;;;;;;18.38;8.48;;;0.60;99.90;;;;;;4839795;29;20053;-68
2021/01/17 00:56:39;;;;;;;18.85;7.32;;;0.70;99.90;;;;;;4851665;29;20057;-68
2021/01/17 00:59:08;;;;;;;14.30;6.65;;;0.70;99.90;;;;;;4845399;29;20069;-68
2021/01/17 01:01:44;;;;;;;17.10;8.15;;;0.70;99.90;;;;;;4830267;29;20084;-68
2021/01/17 01:04:16;;;;;;;15.77;7.10;;;0.70;99.90;;;;;;4839999;29;20049;-68
2021/01/17 01:06:43;;;;;;;17.25;7.55;;;0.70;99.90;;;;;;4852415;29;20061;-68
2021/01/17 01:09:14;;;;;;;18.48;7.85;;;0.70;99.90;;;;;;4855558;29;20215;-68
2021/01/17 01:11:41;;;;;;;15.93;6.68;;;0.70;99.90;;;;;;4839620;29;20046;-68
2021/01/17 01:14:08;;;;;;;15.93;7.80;;;0.70;99.90;;;;;;4843957;29;20141;-68
2021/01/17 01:16:35;;;;;;;18.85;9.30;;;0.70;99.90;;;;;;4836056;29;20050;-68
2021/01/17 01:19:02;;;;;;;19.30;8.05;;;0.70;99.90;;;;;;4842907;29;20057;-68
2021/01/17 01:21:33;;;;;;;20.63;8.93;;;0.70;99.90;;;;;;4853432;29;20102;-68
2021/01/17 01:24:00;;;;;;;20.88;7.20;;;0.70;99.90;;;;;;4834395;29;20120;-68
2021/01/17 01:26:35;;;;;;;18.58;7.57;;;0.70;99.90;;;;;;4837310;29;20097;-69
2021/01/17 01:29:01;;;;;;;16.73;7.32;;;0.70;99.90;;;;;;4836947;29;20111;-69
2021/01/17 01:31:28;;;;;;;18.02;7.57;;;0.70;99.90;;;;;;4838009;29;20478;-69
2021/01/17 01:33:56;;;;;;;16.77;7.55;;;0.80;99.90;;;;;;4836116;29;20141;-69
2021/01/17 01:36:28;;;;;;;18.52;6.63;;;0.80;99.90;;;;;;4837879;29;20053;-69
2021/01/17 01:38:55;;;;;;;14.82;6.78;;;0.80;99.90;;;;;;4833275;29;20093;-69
2021/01/17 01:41:27;;;;;;;13.73;6.60;;;0.80;99.90;;;;;;4843953;29;20053;-69
2021/01/17 01:43:53;;;;;;;20.95;7.07;;;0.80;99.90;;;;;;4838125;29;20058;-69
2021/01/17 01:46:22;;;;;;;20.40;7.45;;;0.80;99.90;;;;;;4832595;29;20093;-69
2021/01/17 01:48:49;;;;;;;14.73;6.15;;;0.80;99.90;;;;;;4834128;29;20517;-68
2021/01/17 01:51:18;;;;;;;18.45;7.20;;;0.80;99.90;;;;;;4841382;29;20058;-68
2021/01/17 01:53:45;;;;;;;18.45;8.95;;;0.80;99.90;;;;;;4859581;29;20511;-68
2021/01/17 01:56:19;;;;;;;18.27;7.53;;;0.80;99.90;;;;;;4851732;29;20053;-68
2021/01/17 01:58:46;;;;;;;17.70;7.15;;;0.80;99.90;;;;;;4844077;29;20123;-68
2021/01/17 02:01:12;;;;;;;16.45;7.43;;;0.80;99.90;;;;;;4843383;29;20049;-69
2021/01/17 02:03:44;;;;;;;18.83;7.63;;;0.80;99.90;;;;;;4830196;29;20045;-69
2021/01/17 02:06:11;;;;;;;20.88;7.85;;;0.80;99.90;;;;;;4831988;29;20054;-69
2021/01/17 02:08:49;;;;;;;19.00;8.82;;;0.80;99.90;;;;;;4838540;29;20146;-69
2021/01/17 02:11:28;;;;;;;16.70;8.15;;;0.80;99.90;;;;;;4848179;29;20115;-69
2021/01/17 02:14:20;;;;;;;18.65;8.13;;;0.80;99.90;;;;;;4843548;29;20061;-68
2021/01/17 02:16:48;;;;;;;17.92;7.07;;;0.80;99.90;;;;;;4841734;29;20128;-68
2021/01/17 02:19:16;;;;;;;19.27;8.40;;;0.80;99.90;;;;;;4843418;29;20062;-68
2021/01/17 02:21:54;;;;;;;13.98;6.50;;;0.80;99.90;;;;;;4838784;29;20061;-69
2021/01/17 02:24:29;;;;;;;17.25;7.50;;;0.80;99.90;;;;;;4842347;29;20057;-69
2021/01/17 02:26:56;;;;;;;15.05;7.05;;;0.90;99.90;;;;;;4834536;29;20050;-69
2021/01/17 02:29:23;;;;;;;16.48;7.93;;;0.80;99.90;;;;;;4842966;29;20489;-68
2021/01/17 02:31:51;;;;;;;17.20;8.50;;;0.80;99.90;;;;;;4852008;29;20132;-68
2021/01/17 02:34:18;;;;;;;18.40;7.13;;;0.80;99.90;;;;;;4842367;29;20061;-68
2021/01/17 02:36:53;;;;;;;13.95;6.38;;;0.80;99.90;;;;;;4838347;29;20454;-68
2021/01/17 02:39:43;;;;;;;12.40;5.60;;;0.90;99.90;;;;;;4838998;29;20056;-69
2021/01/17 02:42:10;;;;;;;15.55;7.35;;;0.80;99.90;;;;;;4854382;29;20137;-69
2021/01/17 02:44:36;;;;;;;13.38;6.60;;;0.90;99.90;;;;;;4832671;29;20455;-69
2021/01/17 02:47:03;;;;;;;16.45;6.97;;;0.90;99.90;;;;;;4842999;29;20420;-68
2021/01/17 02:49:30;;;;;;;16.13;8.13;;;0.90;99.90;;;;;;4833069;29;20479;-68
2021/01/17 02:51:58;;;;;;;14.98;7.95;;;0.90;99.90;;;;;;4836149;29;20049;-68
2021/01/17 02:54:33;;;;;;;18.40;8.18;;;0.90;99.90;;;;;;4837821;29;20065;-69
2021/01/17 02:57:09;;;;;;;19.52;7.00;;;0.90;99.90;;;;;;4841442;29;20050;-69
2021/01/17 02:59:59;;;;;;;14.43;6.47;;;0.90;99.90;;;;;;4842648;29;20478;-69
2021/01/17 03:02:33;;;;;;;17.85;7.55;;;0.90;99.90;;;;;;4850441;29;20053;-69
2021/01/17 03:05:06;;;;;;;13.20;6.32;;;0.90;99.90;;;;;;4832879;29;20065;-69
2021/01/17 03:07:36;;;;;;;14.85;6.72;;;0.90;99.90;;;;;;4833961;29;20107;-69
2021/01/17 03:10:09;;;;;;;13.85;6.38;;;0.90;99.90;;;;;;4840981;29;20153;-69
2021/01/17 03:12:36;;;;;;;14.20;6.57;;;0.90;99.90;;;;;;4835813;29;20068;-69
2021/01/17 03:15:04;;;;;;;14.65;7.13;;;0.90;99.90;;;;;;4837227;29;20061;-69
2021/01/17 03:17:31;;;;;;;15.20;6.93;;;1.00;99.90;;;;;;4851456;29;20050;-69
2021/01/17 03:19:58;;;;;;;18.95;7.13;;;1.00;99.90;;;;;;4839069;29;20060;-69
2021/01/17 03:22:24;;;;;;;13.93;6.03;;;1.00;99.90;;;;;;4849435;29;20110;-69
2021/01/17 03:24:51;;;;;;;13.65;6.47;;;1.00;99.90;;;;;;4833404;29;20106;-69
2021/01/17 03:27:19;;;;;;;11.38;5.90;;;1.00;99.90;;;;;;4834232;29;20056;-69
2021/01/17 03:29:45;;;;;;;10.82;5.60;;;1.00;99.90;;;;;;4835276;29;20054;-69
2021/01/17 03:32:13;;;;;;;13.57;5.80;;;1.00;99.90;;;;;;4838821;29;20075;-69
2021/01/17 03:34:39;;;;;;;11.02;5.20;;;1.00;99.90;;;;;;4833257;29;20079;-69
2021/01/17 03:37:06;;;;;;;12.38;5.88;;;1.00;99.90;;;;;;4851174;29;20119;-69
2021/01/17 03:39:33;;;;;;;13.82;5.93;;;1.00;99.90;;;;;;4836892;29;20110;-69
2021/01/17 03:42:01;;;;;;;13.98;6.20;;;1.00;99.90;;;;;;4837658;29;20144;-69
2021/01/17 03:44:27;;;;;;;12.48;6.05;;;1.00;99.90;;;;;;4832529;29;20473;-69
2021/01/17 03:46:53;;;;;;;11.77;5.55;;;1.00;99.90;;;;;;4833345;29;20105;-69
2021/01/17 03:49:20;;;;;;;13.27;5.70;;;1.00;99.90;;;;;;4840425;29;20054;-69
2021/01/17 03:51:46;;;;;;;13.55;6.25;;;1.10;99.90;;;;;;4847288;29;20169;-69
2021/01/17 03:54:13;;;;;;;13.82;6.30;;;1.10;99.90;;;;;;4835070;29;20566;-68
2021/01/17 03:56:39;;;;;;;10.95;6.07;;;1.10;99.90;;;;;;4832943;29;20050;-69
2021/01/17 03:59:06;;;;;;;14.68;6.63;;;1.10;99.90;;;;;;4839783;29;20567;-69
2021/01/17 04:01:33;;;;;;;10.73;5.90;;;1.10;99.90;;;;;;4833576;29;20102;-69
2021/01/17 04:03:59;;;;;;;12.60;5.95;;;1.10;99.90;;;;;;4831747;29;20057;-69
2021/01/17 04:06:26;;;;;;;14.20;5.47;;;1.10;99.90;;;;;;4851438;29;20482;-69
2021/01/17 04:08:52;;;;;;;10.93;5.50;;;1.10;99.90;;;;;;4833426;29;20061;-69
2021/01/17 04:11:19;;;;;;;9.30;4.70;;;1.10;99.90;;;;;;4837045;29;20336;-68
2021/01/17 04:13:45;;;;;;;12.77;5.72;;;1.20;99.90;;;;;;4833680;29;20109;-69
2021/01/17 04:16:12;;;;;;;11.73;5.60;;;1.20;99.90;;;;;;4839241;29;20064;-69
2021/01/17 04:18:42;;;;;;;10.68;5.82;;;1.20;99.90;;;;;;4850199;29;20053;-68
2021/01/17 04:21:09;;;;;;;12.38;5.53;;;1.20;99.90;;;;;;4834279;29;20431;-69
2021/01/17 04:23:36;;;;;;;21.02;9.43;;;1.20;99.90;;;;;;4839140;29;20057;-69
2021/01/17 04:26:02;;;;;;;12.25;6.72;;;1.20;99.90;;;;;;4839265;29;20057;-69
2021/01/17 04:28:29;;;;;;;16.02;6.47;;;1.20;99.90;;;;;;4839767;29;20057;-69
2021/01/17 04:30:56;;;;;;;16.42;6.80;;;1.20;99.90;;;;;;4852033;29;20046;-69
2021/01/17 04:33:22;;;;;;;14.68;6.82;;;1.20;99.90;;;;;;4832930;29;20076;-69
2021/01/17 04:35:49;;;;;;;12.13;5.47;;;1.20;99.90;;;;;;4831724;29;20046;-69
2021/01/17 04:38:16;;;;;;;12.02;6.25;;;1.20;99.90;;;;;;4839776;29;20050;-69
2021/01/17 04:40:43;;;;;;;15.70;5.85;;;1.20;99.90;;;;;;4843246;29;20132;-69
2021/01/17 04:43:38;;;;;;;14.98;6.57;;;1.20;99.90;;;;;;4835602;29;20069;-69
2021/01/17 04:46:07;;;;;;;11.93;5.90;;;1.20;99.90;;;;;;4836649;29;20585;-69
2021/01/17 04:48:38;;;;;;;13.32;6.13;;;1.20;99.90;;;;;;4844033;29;20061;-69
2021/01/17 04:51:09;;;;;;;11.52;5.45;;;1.20;99.90;;;;;;4842014;29;20458;-69
2021/01/17 04:53:37;;;;;;;11.85;5.07;;;1.20;99.90;;;;;;4835292;29;20083;-69
2021/01/17 04:56:17;;;;;;;12.75;5.78;;;1.30;99.90;;;;;;4830207;29;20053;-69
2021/01/17 04:58:51;;;;;;;11.48;4.93;;;1.30;99.90;;;;;;4839355;29;20053;-69
2021/01/17 05:01:22;;;;;;;9.65;5.30;;;1.30;99.90;;;;;;4833805;29;20125;-69
2021/01/17 05:04:11;;;;;;;15.10;6.85;;;1.30;99.90;;;;;;4857618;29;20552;-69
2021/01/17 05:06:40;;;;;;;8.45;4.57;;;1.30;99.90;;;;;;4835679;29;20494;-69
2021/01/17 05:09:06;;;;;;;9.93;4.70;;;1.30;99.90;;;;;;4838730;29;20072;-69
2021/01/17 05:11:34;;;;;;;11.40;5.50;;;1.30;99.90;;;;;;4842019;29;20101;-69
2021/01/17 05:14:09;;;;;;;12.80;5.35;;;1.30;99.90;;;;;;4834388;29;20470;-69
2021/01/17 05:16:39;;;;;;;10.88;5.18;;;1.30;99.90;;;;;;4832465;29;20054;-69
2021/01/17 05:19:13;;;;;;;12.57;6.05;;;1.30;99.90;;;;;;4836891;29;20136;-69
2021/01/17 05:21:47;;;;;;;14.00;6.47;;;1.30;99.90;;;;;;4829657;29;20129;-69
2021/01/17 05:24:16;;;;;;;10.90;5.68;;;1.30;99.90;;;;;;4839534;29;20096;-69
2021/01/17 05:26:57;;;;;;;9.23;5.40;;;1.40;99.90;;;;;;4839242;29;20501;-69
2021/01/17 05:29:29;;;;;;;9.38;4.70;;;1.40;99.90;;;;;;4844437;29;20109;-69
2021/01/17 05:32:03;;;;;;;12.45;6.25;;;1.40;99.90;;;;;;4838069;29;20103;-69
2021/01/17 05:34:31;;;;;;;9.18;4.75;;;1.40;99.90;;;;;;4832069;29;20546;-68
2021/01/17 05:37:07;;;;;;;11.35;5.07;;;1.40;99.90;;;;;;4839813;29;20116;-69
2021/01/17 05:39:55;;;;;;;11.52;5.53;;;1.40;99.90;;;;;;4842944;29;20113;-69
2021/01/17 05:42:24;;;;;;;11.93;5.55;;;1.40;99.90;;;;;;4835656;29;20058;-69
2021/01/17 05:44:54;;;;;;;10.88;5.93;;;1.40;99.90;;;;;;4837749;29;20483;-69
2021/01/17 05:47:22;;;;;;;10.55;5.30;;;1.40;99.90;;;;;;4833070;29;20185;-69
2021/01/17 05:49:50;;;;;;;10.32;5.32;;;1.40;99.90;;;;;;4835529;29;20138;-69
2021/01/17 05:52:19;;;;;;;11.98;5.32;;;1.50;99.90;;;;;;4835352;29;20083;-69
2021/01/17 05:54:49;;;;;;;12.20;5.63;;;1.50;99.90;;;;;;4839349;29;20045;-69
2021/01/17 05:57:25;;;;;;;10.63;5.05;;;1.50;99.90;;;;;;4839617;29;20054;-69
2021/01/17 05:59:55;;;;;;;9.80;4.72;;;1.50;99.90;;;;;;4846916;29;20053;-69
2021/01/17 06:02:23;;;;;;;13.52;6.65;;;1.50;99.90;;;;;;4853532;29;20398;-69
2021/01/17 06:04:59;;;;;;;13.55;5.40;;;1.50;99.90;;;;;;4835500;29;20140;-69
2021/01/17 06:07:27;;;;;;;9.85;5.40;;;1.50;99.90;;;;;;4835652;29;20049;-69
2021/01/17 06:10:05;;;;;;;9.55;4.38;;;1.50;99.90;;;;;;4858659;29;20102;-69
2021/01/17 06:12:35;;;;;;;11.30;5.30;;;1.50;99.90;;;;;;4834673;29;20101;-69
2021/01/17 06:15:11;;;;;;;10.23;5.05;;;1.50;99.90;;;;;;4836858;29;20087;-69
2021/01/17 06:17:45;;;;;;;12.35;5.38;;;1.50;99.90;;;;;;4831630;29;20447;-69
2021/01/17 06:20:24;;;;;;;11.68;4.85;;;1.50;99.90;;;;;;4840905;29;20094;-69
2021/01/17 06:22:59;;;;;;;13.23;5.50;;;1.50;99.90;;;;;;4856032;29;20454;-69
2021/01/17 06:25:27;;;;;;;13.10;5.55;;;1.50;99.90;;;;;;4835342;29;20054;-69
2021/01/17 06:28:14;;;;;;;14.25;5.38;;;1.50;99.90;;;;;;4842830;29;20116;-69
2021/01/17 06:30:42;;;;;;;10.55;4.40;;;1.50;99.90;;;;;;4852838;29;20045;-69
2021/01/17 06:33:21;;;;;;;10.88;4.78;;;1.50;99.90;;;;;;4837192;29;20064;-67
2021/01/17 06:36:16;;;;;;;11.20;5.30;;;1.60;99.90;;;;;;4836931;29;20523;-68
2021/01/17 06:38:44;;;;;;;15.85;6.55;;;1.60;99.90;;;;;;4854626;29;20049;-68
2021/01/17 06:41:12;;;;;;;11.55;5.60;;;1.60;99.90;;;;;;4843517;29;20073;-68
2021/01/17 06:43:41;;;;;;;15.13;6.00;;;1.60;99.90;;;;;;4833156;29;20115;-69
2021/01/17 06:46:10;;;;;;;10.70;5.35;;;1.60;99.90;;;;;;4834513;29;20474;-68
2021/01/17 06:48:37;;;;;;;12.43;5.57;;;1.60;99.90;;;;;;4851004;29;20148;-68
2021/01/17 06:51:20;;;;;;;10.73;4.60;;;1.60;99.90;;;;;;4832530;29;20050;-68
2021/01/17 06:53:54;;;;;;;10.45;5.03;;;1.60;99.90;;;;;;4828231;29;20058;-68
2021/01/17 06:56:21;;;;;;;12.07;4.80;;;1.60;99.90;;;;;;4840875;29;20109;-68
2021/01/17 06:58:51;;;;;;;10.52;4.70;;;1.60;99.90;;;;;;4837986;29;20049;-68
2021/01/17 07:01:27;;;;;;;11.15;5.20;;;1.60;99.90;;;;;;4833057;29;20459;-68
2021/01/17 07:04:02;;;;;;;10.63;5.30;;;1.60;99.90;;;;;;4854041;29;20643;-69
2021/01/17 07:07:15;;;;;;;10.57;5.13;;;1.60;99.90;;;;;;4845763;29;20425;-69
2021/01/17 07:09:58;;;;;;;12.77;5.38;;;1.60;99.90;;;;;;4780337;29;20208;-69
2021/01/17 07:12:53;;;;;;;9.65;4.35;;;1.60;99.90;;;;;;4830564;29;20056;-69
2021/01/17 07:15:40;;;;;;;9.25;4.20;;;1.60;99.90;;;;;;4851612;29;20484;-69
2021/01/17 07:18:14;;;;;;;10.70;4.65;;;1.60;99.90;;;;;;4828481;29;20403;-69
2021/01/17 07:20:46;;;;;;;11.40;5.05;;;1.50;99.90;;;;;;4844610;29;20064;-69
2021/01/17 07:23:15;;;;;;;9.90;4.43;;;1.60;99.90;;;;;;4829176;29;20113;-69
2021/01/17 07:25:44;;;;;;;8.03;4.17;;;1.60;99.90;;;;;;4828237;29;20061;-69
2021/01/17 07:28:11;;;;;;;;;;;1.60;99.90;;;;;;4828878;29;20165;-68
2021/01/17 07:31:00;;;;;;;7.03;3.55;;;1.60;99.90;;;;;;4828011;29;19928;-68
2021/01/17 07:33:31;;;;;;;9.23;4.53;;;1.60;99.90;;;;;;4850313;29;20129;-68
2021/01/17 07:36:03;;;;;;;12.07;5.28;;;1.60;99.90;;;;;;4825988;29;20396;-69
2021/01/17 07:38:32;;;;;;;9.50;4.88;;;1.60;99.90;;;;;;4833396;29;20049;-68
2021/01/17 07:41:03;;;;;;;10.50;5.15;;;1.60;99.90;;;;;;4842846;29;20054;-68
2021/01/17 07:43:30;;;;;;;9.98;4.82;;;1.70;99.90;;;;;;4843901;29;20399;-68
2021/01/17 07:46:00;;;;;;;9.98;5.15;;;1.70;99.90;;;;;;4829780;29;20054;-68
2021/01/17 07:48:27;;;;;;;11.18;5.25;;;1.70;99.90;;;;;;4853338;29;20434;-68
2021/01/17 07:50:56;;;;;;;11.73;4.93;;;1.70;99.90;;;;;;4830861;29;20494;-68
2021/01/17 07:53:38;;;;;;;11.30;4.50;;;1.70;99.90;;;;;;4842159;29;20054;-68
2021/01/17 07:56:32;;;;;;;9.68;4.55;;;1.70;99.90;;;;;;4848031;29;20802;-68
2021/01/17 07:59:00;;;;;;;9.38;4.35;;;1.70;99.90;;;;;;4836614;29;20056;-68
2021/01/17 08:01:39;;;;;;;11.43;5.30;;;1.70;99.90;;;;;;4838082;29;20113;-68
2021/01/17 08:04:07;;;;;;;9.30;4.72;;;1.70;99.90;;;;;;4841381;29;20061;-68
2021/01/17 08:06:34;;;;;;;10.98;5.00;;;1.70;99.90;;;;;;4837859;29;20059;-68
2021/01/17 08:09:18;;;;;;;10.32;4.95;;;1.70;99.90;;;;;;4831280;29;20046;-68
2021/01/17 08:12:00;;;;;;;10.57;5.25;;;1.70;99.90;;;;;;4853156;29;20482;-69
2021/01/17 08:14:27;;;;;;;11.07;4.90;;;1.80;99.90;;;;;;4839322;29;20106;-69
2021/01/17 08:17:09;;;;;;;10.60;5.47;;;1.80;99.90;;;;;;4842773;29;20549;-69
2021/01/17 08:19:43;;;;;;;9.10;5.03;;;1.80;99.90;;;;;;4829782;29;20062;-69
2021/01/17 08:22:16;;;;;;;11.55;5.63;;;1.90;99.90;;;;;;4827856;29;20146;-69
2021/01/17 08:24:50;;;;;;;13.60;5.93;;;1.90;99.90;;;;;;4848583;29;20145;-69
2021/01/17 08:27:31;;;;;;;11.85;5.18;;;1.90;99.90;;;;;;4850692;29;20053;-68
2021/01/17 08:30:07;;;;;;;9.68;4.80;;;1.90;99.90;;;;;;4849005;29;20409;-68
2021/01/17 08:32:54;;;;;;;9.30;4.55;;;1.90;99.90;;;;;;4834368;29;20094;-69
2021/01/17 08:35:20;;;;;;;13.00;5.40;;;1.90;99.90;;;;;;4835968;29;20060;-69
2021/01/17 08:38:11;;;;;;;11.30;4.47;;;2.00;99.90;;;;;;4833533;29;20097;-68
2021/01/17 08:40:37;;;;;;;16.13;5.20;;;2.00;99.90;;;;;;4854350;29;20054;-68
2021/01/17 08:43:12;;;;;;;12.32;5.72;;;2.00;99.90;;;;;;4845822;29;20052;-68
2021/01/17 08:45:43;;;;;;;8.85;5.05;;;2.00;99.90;;;;;;4835421;29;20229;-68
2021/01/17 08:48:18;;;;;;;11.88;5.80;;;2.00;99.90;;;;;;4838839;29;20117;-69
2021/01/17 08:50:48;;;;;;;11.88;5.15;;;2.00;99.90;;;;;;4839319;29;20110;-69
2021/01/17 08:53:21;;;;;;;12.70;5.40;;;2.00;99.90;;;;;;4847241;29;20053;-69
2021/01/17 08:55:50;;;;;;;10.75;4.70;;;2.10;99.90;;;;;;4824941;29;20132;-69
2021/01/17 08:58:26;;;;;;;11.18;5.07;;;2.10;99.90;;;;;;4828075;29;20113;-69
2021/01/17 09:00:52;;;;;;;10.77;4.88;;;2.10;99.90;;;;;;4826519;29;20046;-69
2021/01/17 09:03:31;;;;;;;14.50;5.88;;;2.10;99.90;;;;;;4826948;29;20061;-68
2021/01/17 09:06:03;;;;;;;10.65;4.75;;;2.10;99.90;;;;;;4843144;29;20057;-68
2021/01/17 09:08:33;;;;;;;12.82;4.93;;;2.10;99.90;;;;;;4831164;29;20133;-69
2021/01/17 09:11:00;;;;;;;10.23;5.10;;;2.10;99.90;;;;;;4827990;29;20502;-68
2021/01/17 09:13:31;;;;;;;13.65;5.40;;;2.20;99.90;;;;;;4828671;29;20046;-68
2021/01/17 09:16:06;;;;;;;8.65;4.85;;;2.20;99.90;;;;;;4831424;29;20050;-68
2021/01/17 09:18:38;;;;;;;9.82;5.03;;;2.20;99.90;;;;;;4831568;29;20065;-69
2021/01/17 09:21:07;;;;;;;9.95;4.93;;;2.30;99.90;;;;;;4825919;29;20056;-69
2021/01/17 09:23:40;;;;;;;8.40;4.97;;;2.30;99.90;;;;;;4825460;29;20137;-69
2021/01/17 09:26:08;;;;;;;11.90;5.53;;;2.30;99.90;;;;;;4832701;29;20494;-69
2021/01/17 09:28:34;;;;;;;12.35;5.78;;;2.40;99.90;;;;;;4825633;29;20054;-68
2021/01/17 09:31:02;;;;;;;11.57;5.32;;;2.40;99.90;;;;;;4827819;29;20107;-68
2021/01/17 09:33:30;;;;;;;10.98;5.28;;;2.40;99.90;;;;;;4831600;29;20061;-68
2021/01/17 09:35:56;;;;;;;11.35;5.32;;;2.50;99.90;;;;;;4826750;29;20450;-70
2021/01/17 09:38:25;;;;;;;10.90;5.05;;;2.50;99.90;;;;;;4828494;29;20980;-69
2021/01/17 09:40:53;;;;;;;14.02;6.20;;;2.50;99.90;;;;;;4828497;29;20110;-68
2021/01/17 09:43:20;;;;;;;9.65;4.55;;;2.60;99.90;;;;;;4842300;29;20065;-69
2021/01/17 09:45:51;;;;;;;10.52;5.32;;;2.60;99.90;;;;;;4827247;29;20053;-69
2021/01/17 09:48:19;;;;;;;13.95;5.28;;;2.60;99.90;;;;;;4829355;29;20053;-69
2021/01/17 09:50:47;;;;;;;11.38;4.70;;;2.70;99.90;;;;;;4827667;29;20071;-69
2021/01/17 09:53:14;;;;;;;8.38;4.43;;;2.70;99.90;;;;;;4825343;29;20359;-68
2021/01/17 09:55:42;;;;;;;11.00;5.28;;;2.80;99.90;;;;;;4853370;29;20053;-69
2021/01/17 09:58:10;;;;;;;9.20;5.03;;;3.00;99.90;;;;;;4827099;29;20126;-69
2021/01/17 10:00:38;;;;;;;11.60;4.93;;;3.10;99.90;;;;;;4823887;29;20430;-68
2021/01/17 10:03:14;;;;;;;12.30;6.03;;;3.20;99.90;;;;;;4828155;29;22187;-68
2021/01/17 10:05:43;;;;;;;10.55;5.63;;;3.30;99.90;;;;;;4841811;29;20065;-69
2021/01/17 10:08:14;;;;;;;15.80;5.72;;;3.30;99.90;;;;;;4825281;29;20114;-69
2021/01/17 10:10:43;;;;;;;11.43;5.80;;;3.40;99.90;;;;;;4842418;29;20065;-69
2021/01/17 10:13:11;;;;;;;12.93;5.80;;;3.40;99.90;;;;;;4827088;29;20454;-69
2021/01/17 10:15:40;;;;;;;12.20;4.78;;;3.50;99.90;;;;;;4826448;29;20053;-68
2021/01/17 10:18:08;;;;;;;10.75;5.15;;;3.60;99.90;;;;;;4840226;29;20140;-69
2021/01/17 10:20:38;;;;;;;10.43;4.63;;;3.70;99.90;;;;;;4827808;29;20054;-69
2021/01/17 10:23:10;;;;;;;12.25;5.25;;;3.80;99.90;;;;;;4839222;29;20057;-69
2021/01/17 10:25:37;;;;;;;13.52;5.80;;;3.80;99.90;;;;;;4824089;29;20463;-69
2021/01/17 10:28:04;;;;;;;8.20;4.40;;;3.90;99.90;;;;;;4848148;29;20050;-69
2021/01/17 10:30:34;;;;;;;11.13;5.32;;;4.00;99.90;;;;;;4843907;29;20129;-69
2021/01/17 10:33:08;;;;;;;11.88;5.68;;;4.20;99.90;;;;;;4828369;29;20710;-68
2021/01/17 10:35:44;;;;;;;15.10;5.07;;;4.60;99.90;;;;;;4826752;29;20133;-68
2021/01/17 10:38:13;;;;;;;10.27;4.70;;;4.90;99.90;;;;;;4827688;29;20503;-69
2021/01/17 10:40:41;;;;;;;14.23;4.22;;;5.20;99.90;;;;;;4837601;29;20075;-69
2021/01/17 10:43:10;;;;;;;9.98;4.25;;;5.40;99.90;;;;;;4828642;29;20802;-69
2021/01/17 10:45:40;;;;;;;9.43;3.80;;;5.60;99.90;;;;;;4825348;29;20077;-69
2021/01/17 10:48:16;;;;;;;12.20;4.18;;;5.90;99.90;;;;;;4824213;29;20575;-69
2021/01/17 10:50:50;;;;;;;10.20;3.13;;;6.30;99.90;;;;;;4823373;29;20125;-69
2021/01/17 10:53:33;;;;;;;7.95;3.15;;;6.70;99.90;;;;;;4825589;29;20057;-68
2021/01/17 10:56:00;;;;;;;7.43;2.95;;;6.80;99.90;;;;;;4824930;29;20156;-69
2021/01/17 10:58:45;;;;;;;7.63;3.15;;;6.80;99.90;;;;;;4837452;29;20049;-69
2021/01/17 11:01:13;;;;;;;6.65;2.60;;;6.70;99.90;;;;;;4825605;29;20057;-69
2021/01/17 11:03:44;;;;;;;9.60;2.60;;;6.60;99.90;;;;;;4822452;29;20502;-69
2021/01/17 11:06:18;;;;;;;6.68;3.03;;;6.50;99.90;;;;;;4821051;29;20168;-69
2021/01/17 11:08:53;;;;;;;7.50;3.00;;;6.50;99.90;;;;;;4840605;29;20058;-68
2021/01/17 11:11:21;;;;;;;4.45;2.25;;;6.40;99.90;;;;;;4825254;29;20066;-69
2021/01/17 11:14:02;;;;;;;6.13;1.90;;;6.30;99.90;;;;;;4823806;29;20045;-69
2021/01/17 11:17:04;;;;;;;5.97;1.98;;;6.30;99.90;;;;;;4823709;29;20133;-69
2021/01/17 11:19:38;;;;;;;5.97;2.38;;;6.40;99.90;;;;;;4769080;29;20051;-68
2021/01/17 11:22:06;;;;;;;4.88;2.00;;;6.40;99.90;;;;;;4814910;29;20061;-68
2021/01/17 11:24:38;;;;;;;6.97;2.28;;;6.40;99.90;;;;;;4838747;29;20050;-69
2021/01/17 11:27:09;;;;;;;6.43;1.90;;;6.50;99.90;;;;;;4826231;29;20064;-69
2021/01/17 11:29:36;;;;;;;5.68;2.03;;;6.60;99.90;;;;;;4840534;29;20053;-69
2021/01/17 11:32:02;;;;;;;8.60;2.25;;;6.60;99.90;;;;;;4835878;29;20062;-69
2021/01/17 11:34:37;;;;;;;4.93;2.25;;;6.80;99.90;;;;;;4854846;29;20068;-69
2021/01/17 11:37:04;;;;;;;5.22;1.90;;;6.80;99.90;;;;;;4837280;29;20060;-69
2021/01/17 11:39:31;;;;;;;5.85;2.03;;;6.80;99.90;;;;;;4839726;29;20105;-68
2021/01/17 11:41:58;;;;;;;7.35;1.80;;;7.00;99.90;;;;;;4834477;29;20061;-68
2021/01/17 11:44:34;;;;;;;6.57;1.70;;;7.30;99.90;;;;;;4851590;29;20077;-68
2021/01/17 11:47:02;;;;;;;6.90;1.90;;;7.30;99.90;;;;;;4827908;29;20061;-69
2021/01/17 11:49:30;;;;;;;4.65;1.75;;;7.30;99.90;;;;;;4841153;29;20061;-69
2021/01/17 11:52:11;;;;;;;6.15;1.90;;;7.50;99.90;;;;;;4829090;29;20075;-69
2021/01/17 11:54:37;;;;;;;8.95;1.95;;;7.90;99.90;;;;;;4841632;29;20086;-69
2021/01/17 11:57:06;;;;;;;8.30;1.92;;;8.40;99.90;;;;;;4835191;29;20045;-69
2021/01/17 11:59:34;;;;;;;9.65;2.20;;;9.00;99.90;;;;;;4841177;29;20065;-69
2021/01/17 12:02:18;;;;;;;6.40;2.45;;;9.50;99.90;;;;;;4826012;29;20114;-69
2021/01/17 12:04:45;;;;;;;5.22;1.80;;;10.00;99.90;;;;;;4839704;29;20054;-69
2021/01/17 12:07:12;;;;;;;7.47;1.65;;;10.40;99.90;;;;;;4853964;29;20065;-69
2021/01/17 12:09:39;;;;;;;7.43;2.67;;;10.60;99.90;;;;;;4833987;29;20136;-69
2021/01/17 12:12:12;;;;;;;11.65;2.58;;;10.90;99.90;;;;;;4839233;29;20058;-69
2021/01/17 12:14:39;;;;;;;4.00;1.90;;;11.00;99.90;;;;;;4836657;29;20383;-69
2021/01/17 12:17:07;;;;;;;5.40;1.80;;;11.20;99.90;;;;;;4840023;29;20049;-69
2021/01/17 12:19:37;;;;;;;9.32;1.58;;;11.30;99.90;;;;;;4836102;29;20106;-69
2021/01/17 12:22:05;;;;;;;7.53;1.55;;;11.40;99.90;;;;;;4830735;29;20053;-69
2021/01/17 12:24:34;;;;;;;9.57;1.83;;;11.50;99.90;;;;;;4837754;29;20069;-69
2021/01/17 12:27:01;;;;;;;6.22;1.60;;;11.60;99.90;;;;;;4833401;29;20087;-69
2021/01/17 12:29:28;;;;;;;7.55;1.45;;;11.70;99.90;;;;;;4841662;29;20409;-69
2021/01/17 12:31:54;;;;;;;10.50;2.47;;;11.60;99.90;;;;;;4830891;29;20050;-69
2021/01/17 12:34:21;;;;;;;7.43;2.22;;;11.40;99.90;;;;;;4841821;29;20061;-69
2021/01/17 12:36:48;;;;;;;8.38;1.48;;;11.00;99.90;;;;;;4848220;29;20563;-69
2021/01/17 12:39:17;;;;;;;8.98;2.38;;;10.60;99.90;;;;;;4841819;29;20061;-68
2021/01/17 12:41:45;;;;;;;8.10;1.95;;;10.40;99.90;;;;;;4831217;29;20451;-69
2021/01/17 12:44:16;;;;;;;7.70;1.48;;;10.40;99.90;;;;;;4839426;29;20542;-69
2021/01/17 12:46:44;;;;;;;6.53;1.60;;;10.40;99.90;;;;;;4830793;29;20090;-69
2021/01/17 12:49:13;;;;;;;10.30;1.80;;;10.50;99.90;;;;;;4853726;29;20061;-69
2021/01/17 12:51:40;;;;;;;9.95;1.83;;;10.80;99.90;;;;;;4839611;29;20423;-69
2021/01/17 12:54:06;;;;;;;7.50;1.25;;;11.20;99.90;;;;;;4848763;29;20523;-69
2021/01/17 12:56:33;;;;;;;6.32;1.58;;;11.40;99.90;;;;;;4839730;29;20142;-69
2021/01/17 12:58:59;;;;;;;6.45;1.50;;;11.40;99.90;;;;;;4849396;29;20057;-69
2021/01/17 13:01:26;;;;;;;4.53;1.33;;;11.50;99.90;;;;;;4847214;29;20058;-69
2021/01/17 13:03:53;;;;;;;7.30;1.90;;;11.60;99.90;;;;;;4831030;29;20062;-69
2021/01/17 13:06:20;;;;;;;10.40;1.85;;;11.70;99.90;;;;;;4842198;29;20156;-68
2021/01/17 13:08:47;;;;;;;6.28;2.00;;;11.70;99.90;;;;;;4834613;29;20406;-69